sensor_id;sensor_type;location;lat;lon;timestamp;temperature;humidity
33761;DHT22;20084;47.912;19.044;2023-04-08T00:01:06;6.20;99.90
33761;DHT22;20084;47.912;19.044;2023-04-08T00:03:32;6.30;99.90
33761;DHT22;20084;47.912;19.044;2023-04-08T00:05:58;6.30;99.90
33761;DHT22;20084;47.912;19.044;2023-04-08T00:08:25;6.30;99.90
33761;DHT22;20084;47.912;19.044;2023-04-08T00:10:51;6.30;99.90
33761;DHT22;20084;47.912;19.044;2023-04-08T00:13:16;6.30;99.90
33761;DHT22;20084;47.912;19.044;2023-04-08T00:15:42;6.30;99.90
33761;DHT22;20084;47.912;19.044;2023-04-08T00:18:07;6.20;99.90
33761;DHT22;20084;47.912;19.044;2023-04-08T00:20:33;6.20;99.90
33761;DHT22;20084;47.912;19.044;2023-04-08T00:22:59;6.20;99.90
33761;DHT22;20084;47.912;19.044;2023-04-08T00:25:24;6.20;99.90
33761;DHT22;20084;47.912;19.044;2023-04-08T00:27:50;6.20;99.90
33761;DHT22;20084;47.912;19.044;2023-04-08T00:30:16;6.20;99.90
33761;DHT22;20084;47.912;19.044;2023-04-08T00:32:41;6.30;99.90
33761;DHT22;20084;47.912;19.044;2023-04-08T00:35:08;6.30;99.90
33761;DHT22;20084;47.912;19.044;2023-04-08T00:37:34;6.20;99.90
33761;DHT22;20084;47.912;19.044;2023-04-08T00:39:59;6.20;99.90
33761;DHT22;20084;47.912;19.044;2023-04-08T00:42:25;6.20;99.90
33761;DHT22;20084;47.912;19.044;2023-04-08T00:44:51;6.10;99.90
33761;DHT22;20084;47.912;19.044;2023-04-08T00:47:17;6.10;99.90
33761;DHT22;20084;47.912;19.044;2023-04-08T00:49:43;6.00;99.90
33761;DHT22;20084;47.912;19.044;2023-04-08T00:52:10;6.00;99.90
33761;DHT22;20084;47.912;19.044;2023-04-08T00:54:36;6.00;99.90
33761;DHT22;20084;47.912;19.044;2023-04-08T00:57:03;6.00;99.90
33761;DHT22;20084;47.912;19.044;2023-04-08T00:59:30;6.00;99.90
33761;DHT22;20084;47.912;19.044;2023-04-08T01:02:11;5.90;99.90
33761;DHT22;20084;47.912;19.044;2023-04-08T01:07:33;5.90;99.90
33761;DHT22;20084;47.912;19.044;2023-04-08T01:10:10;6.00;99.90
33761;DHT22;20084;47.912;19.044;2023-04-08T01:12:42;5.90;99.90
33761;DHT22;20084;47.912;19.044;2023-04-08T01:15:11;5.90;99.90
33761;DHT22;20084;47.912;19.044;2023-04-08T01:17:37;5.90;99.90
33761;DHT22;20084;47.912;19.044;2023-04-08T01:20:06;5.80;99.90
33761;DHT22;20084;47.912;19.044;2023-04-08T01:25:23;5.80;99.90
33761;DHT22;20084;47.912;19.044;2023-04-08T01:27:52;5.80;99.90
33761;DHT22;20084;47.912;19.044;2023-04-08T01:30:22;5.80;99.90
33761;DHT22;20084;47.912;19.044;2023-04-08T01:32:49;5.80;99.90
33761;DHT22;20084;47.912;19.044;2023-04-08T01:35:17;5.80;99.90
33761;DHT22;20084;47.912;19.044;2023-04-08T01:37:44;5.80;99.90
33761;DHT22;20084;47.912;19.044;2023-04-08T01:40:11;5.80;99.90
33761;DHT22;20084;47.912;19.044;2023-04-08T01:42:38;5.80;99.90
33761;DHT22;20084;47.912;19.044;2023-04-08T01:45:05;5.70;99.90
33761;DHT22;20084;47.912;19.044;2023-04-08T01:47:31;5.70;99.90
33761;DHT22;20084;47.912;19.044;2023-04-08T01:49:58;5.70;99.90
33761;DHT22;20084;47.912;19.044;2023-04-08T01:52:25;5.70;99.90
33761;DHT22;20084;47.912;19.044;2023-04-08T01:54:53;5.70;99.90
33761;DHT22;20084;47.912;19.044;2023-04-08T01:57:23;5.70;99.90
33761;DHT22;20084;47.912;19.044;2023-04-08T01:59:52;5.70;99.90
33761;DHT22;20084;47.912;19.044;2023-04-08T02:02:21;5.70;99.90
33761;DHT22;20084;47.912;19.044;2023-04-08T02:04:48;5.70;99.90
33761;DHT22;20084;47.912;19.044;2023-04-08T02:07:15;5.70;99.90
33761;DHT22;20084;47.912;19.044;2023-04-08T02:09:41;5.70;99.90
33761;DHT22;20084;47.912;19.044;2023-04-08T02:12:07;5.80;99.90
33761;DHT22;20084;47.912;19.044;2023-04-08T02:14:32;5.80;99.90
33761;DHT22;20084;47.912;19.044;2023-04-08T02:17:09;5.80;99.90
33761;DHT22;20084;47.912;19.044;2023-04-08T02:19:47;5.70;99.90
33761;DHT22;20084;47.912;19.044;2023-04-08T02:25:08;5.70;99.90
33761;DHT22;20084;47.912;19.044;2023-04-08T02:27:36;5.70;99.90
33761;DHT22;20084;47.912;19.044;2023-04-08T02:30:04;5.80;99.90
33761;DHT22;20084;47.912;19.044;2023-04-08T02:32:32;5.80;99.90
33761;DHT22;20084;47.912;19.044;2023-04-08T02:35:00;5.80;99.90
33761;DHT22;20084;47.912;19.044;2023-04-08T02:37:32;5.80;99.90
33761;DHT22;20084;47.912;19.044;2023-04-08T02:39:58;5.80;99.90
33761;DHT22;20084;47.912;19.044;2023-04-08T02:42:23;5.70;99.90
33761;DHT22;20084;47.912;19.044;2023-04-08T02:44:50;5.70;99.90
33761;DHT22;20084;47.912;19.044;2023-04-08T02:47:15;5.80;99.90
33761;DHT22;20084;47.912;19.044;2023-04-08T02:49:41;5.80;99.90
33761;DHT22;20084;47.912;19.044;2023-04-08T02:52:07;5.70;99.90
33761;DHT22;20084;47.912;19.044;2023-04-08T02:54:32;5.60;99.90
33761;DHT22;20084;47.912;19.044;2023-04-08T02:56:58;5.70;99.90
33761;DHT22;20084;47.912;19.044;2023-04-08T02:59:23;5.70;99.90
33761;DHT22;20084;47.912;19.044;2023-04-08T03:01:50;5.70;99.90
33761;DHT22;20084;47.912;19.044;2023-04-08T03:04:15;5.70;99.90
33761;DHT22;20084;47.912;19.044;2023-04-08T03:06:41;5.80;99.90
33761;DHT22;20084;47.912;19.044;2023-04-08T03:09:07;5.80;99.90
33761;DHT22;20084;47.912;19.044;2023-04-08T03:11:32;5.80;99.90
33761;DHT22;20084;47.912;19.044;2023-04-08T03:13:58;5.90;99.90
33761;DHT22;20084;47.912;19.044;2023-04-08T03:16:24;5.90;99.90
33761;DHT22;20084;47.912;19.044;2023-04-08T03:18:49;5.90;99.90
33761;DHT22;20084;47.912;19.044;2023-04-08T03:21:16;5.90;99.90
33761;DHT22;20084;47.912;19.044;2023-04-08T03:23:41;6.00;99.90
33761;DHT22;20084;47.912;19.044;2023-04-08T03:26:07;5.90;99.90
33761;DHT22;20084;47.912;19.044;2023-04-08T03:28:33;6.00;99.90
33761;DHT22;20084;47.912;19.044;2023-04-08T03:30:58;6.00;99.90
33761;DHT22;20084;47.912;19.044;2023-04-08T03:33:25;6.00;99.90
33761;DHT22;20084;47.912;19.044;2023-04-08T03:35:53;6.10;99.90
33761;DHT22;20084;47.912;19.044;2023-04-08T03:38:18;6.10;99.90
33761;DHT22;20084;47.912;19.044;2023-04-08T03:40:44;6.10;99.90
33761;DHT22;20084;47.912;19.044;2023-04-08T03:43:10;6.10;99.90
33761;DHT22;20084;47.912;19.044;2023-04-08T03:45:36;6.00;99.90
33761;DHT22;20084;47.912;19.044;2023-04-08T03:48:02;6.00;99.90
33761;DHT22;20084;47.912;19.044;2023-04-08T03:50:28;6.00;99.90
33761;DHT22;20084;47.912;19.044;2023-04-08T03:52:54;6.00;99.90
33761;DHT22;20084;47.912;19.044;2023-04-08T03:55:19;6.10;99.90
33761;DHT22;20084;47.912;19.044;2023-04-08T03:57:45;6.00;99.90
33761;DHT22;20084;47.912;19.044;2023-04-08T04:00:11;6.00;99.90
33761;DHT22;20084;47.912;19.044;2023-04-08T04:02:37;6.00;99.90
33761;DHT22;20084;47.912;19.044;2023-04-08T04:05:02;5.90;99.90
33761;DHT22;20084;47.912;19.044;2023-04-08T04:07:28;6.00;99.90
33761;DHT22;20084;47.912;19.044;2023-04-08T04:09:54;6.00;99.90
33761;DHT22;20084;47.912;19.044;2023-04-08T04:12:22;6.00;99.90
33761;DHT22;20084;47.912;19.044;2023-04-08T04:14:47;5.90;99.90
33761;DHT22;20084;47.912;19.044;2023-04-08T04:17:13;6.00;99.90
33761;DHT22;20084;47.912;19.044;2023-04-08T04:19:39;6.00;99.90
33761;DHT22;20084;47.912;19.044;2023-04-08T04:22:04;6.10;99.90
33761;DHT22;20084;47.912;19.044;2023-04-08T04:24:30;6.10;99.90
33761;DHT22;20084;47.912;19.044;2023-04-08T04:26:56;6.10;99.90
33761;DHT22;20084;47.912;19.044;2023-04-08T04:29:21;6.10;99.90
33761;DHT22;20084;47.912;19.044;2023-04-08T04:31:47;6.10;99.90
33761;DHT22;20084;47.912;19.044;2023-04-08T04:34:12;6.10;99.90
33761;DHT22;20084;47.912;19.044;2023-04-08T04:36:38;6.20;99.90
33761;DHT22;20084;47.912;19.044;2023-04-08T04:39:04;6.20;99.90
33761;DHT22;20084;47.912;19.044;2023-04-08T04:41:30;6.10;99.90
33761;DHT22;20084;47.912;19.044;2023-04-08T04:43:56;6.00;99.90
33761;DHT22;20084;47.912;19.044;2023-04-08T04:46:21;6.00;99.90
33761;DHT22;20084;47.912;19.044;2023-04-08T04:48:47;6.10;99.90
33761;DHT22;20084;47.912;19.044;2023-04-08T04:51:13;6.20;99.90
33761;DHT22;20084;47.912;19.044;2023-04-08T04:53:39;6.20;99.90
33761;DHT22;20084;47.912;19.044;2023-04-08T04:56:05;6.20;99.90
33761;DHT22;20084;47.912;19.044;2023-04-08T04:58:31;6.20;99.90
33761;DHT22;20084;47.912;19.044;2023-04-08T05:00:57;6.20;99.90
33761;DHT22;20084;47.912;19.044;2023-04-08T05:03:22;6.20;99.90
33761;DHT22;20084;47.912;19.044;2023-04-08T05:05:52;6.20;99.90
33761;DHT22;20084;47.912;19.044;2023-04-08T05:08:18;6.20;99.90
33761;DHT22;20084;47.912;19.044;2023-04-08T05:10:44;6.20;99.90
33761;DHT22;20084;47.912;19.044;2023-04-08T05:13:10;6.20;99.90
33761;DHT22;20084;47.912;19.044;2023-04-08T05:15:36;6.20;99.90
33761;DHT22;20084;47.912;19.044;2023-04-08T05:18:01;6.20;99.90
33761;DHT22;20084;47.912;19.044;2023-04-08T05:20:27;6.20;99.90
33761;DHT22;20084;47.912;19.044;2023-04-08T05:22:53;6.20;99.90
33761;DHT22;20084;47.912;19.044;2023-04-08T05:25:18;6.20;99.90
33761;DHT22;20084;47.912;19.044;2023-04-08T05:27:44;6.20;99.90
33761;DHT22;20084;47.912;19.044;2023-04-08T05:30:11;6.20;99.90
33761;DHT22;20084;47.912;19.044;2023-04-08T05:32:37;6.30;99.90
33761;DHT22;20084;47.912;19.044;2023-04-08T05:35:03;6.30;99.90
33761;DHT22;20084;47.912;19.044;2023-04-08T05:37:29;6.30;99.90
33761;DHT22;20084;47.912;19.044;2023-04-08T05:39:54;6.30;99.90
33761;DHT22;20084;47.912;19.044;2023-04-08T05:42:20;6.30;99.90
33761;DHT22;20084;47.912;19.044;2023-04-08T05:44:46;6.30;99.90
33761;DHT22;20084;47.912;19.044;2023-04-08T05:47:11;6.30;99.90
33761;DHT22;20084;47.912;19.044;2023-04-08T05:49:39;6.40;99.90
33761;DHT22;20084;47.912;19.044;2023-04-08T05:52:05;6.40;99.90
33761;DHT22;20084;47.912;19.044;2023-04-08T05:54:31;6.40;99.90
33761;DHT22;20084;47.912;19.044;2023-04-08T05:56:56;6.40;99.90
33761;DHT22;20084;47.912;19.044;2023-04-08T05:59:22;6.40;99.90
33761;DHT22;20084;47.912;19.044;2023-04-08T06:01:48;6.40;99.90
33761;DHT22;20084;47.912;19.044;2023-04-08T06:04:13;6.50;99.90
33761;DHT22;20084;47.912;19.044;2023-04-08T06:06:39;6.50;99.90
33761;DHT22;20084;47.912;19.044;2023-04-08T06:09:05;6.40;99.90
33761;DHT22;20084;47.912;19.044;2023-04-08T06:11:30;6.40;99.90
33761;DHT22;20084;47.912;19.044;2023-04-08T06:13:56;6.40;99.90
33761;DHT22;20084;47.912;19.044;2023-04-08T06:16:22;6.40;99.90
33761;DHT22;20084;47.912;19.044;2023-04-08T06:18:47;6.50;99.90
33761;DHT22;20084;47.912;19.044;2023-04-08T06:21:13;6.50;99.90
33761;DHT22;20084;47.912;19.044;2023-04-08T06:23:39;6.50;99.90
33761;DHT22;20084;47.912;19.044;2023-04-08T06:26:04;6.50;99.90
33761;DHT22;20084;47.912;19.044;2023-04-08T06:28:30;6.50;99.90
33761;DHT22;20084;47.912;19.044;2023-04-08T06:30:57;6.50;99.90
33761;DHT22;20084;47.912;19.044;2023-04-08T06:33:22;6.50;99.90
33761;DHT22;20084;47.912;19.044;2023-04-08T06:35:48;6.50;99.90
33761;DHT22;20084;47.912;19.044;2023-04-08T06:38:14;6.50;99.90
33761;DHT22;20084;47.912;19.044;2023-04-08T06:40:40;6.50;99.90
33761;DHT22;20084;47.912;19.044;2023-04-08T06:43:05;6.50;99.90
33761;DHT22;20084;47.912;19.044;2023-04-08T06:45:34;6.50;99.90
33761;DHT22;20084;47.912;19.044;2023-04-08T06:48:00;6.50;99.90
33761;DHT22;20084;47.912;19.044;2023-04-08T06:50:26;6.50;99.90
33761;DHT22;20084;47.912;19.044;2023-04-08T06:52:52;6.50;99.90
33761;DHT22;20084;47.912;19.044;2023-04-08T06:55:17;6.60;99.90
33761;DHT22;20084;47.912;19.044;2023-04-08T06:57:43;6.50;99.90
33761;DHT22;20084;47.912;19.044;2023-04-08T07:00:09;6.50;99.90
33761;DHT22;20084;47.912;19.044;2023-04-08T07:02:34;6.60;99.90
33761;DHT22;20084;47.912;19.044;2023-04-08T07:05:01;6.60;99.90
33761;DHT22;20084;47.912;19.044;2023-04-08T07:07:26;6.60;99.90
33761;DHT22;20084;47.912;19.044;2023-04-08T07:09:52;6.60;99.90
33761;DHT22;20084;47.912;19.044;2023-04-08T07:12:17;6.60;99.90
33761;DHT22;20084;47.912;19.044;2023-04-08T07:14:43;6.60;99.90
33761;DHT22;20084;47.912;19.044;2023-04-08T07:17:09;6.60;99.90
33761;DHT22;20084;47.912;19.044;2023-04-08T07:19:34;6.70;99.90
33761;DHT22;20084;47.912;19.044;2023-04-08T07:22:00;6.60;99.90
33761;DHT22;20084;47.912;19.044;2023-04-08T07:24:26;6.60;99.90
33761;DHT22;20084;47.912;19.044;2023-04-08T07:26:52;6.70;99.90
33761;DHT22;20084;47.912;19.044;2023-04-08T07:29:17;6.70;99.90
33761;DHT22;20084;47.912;19.044;2023-04-08T07:31:43;6.70;99.90
33761;DHT22;20084;47.912;19.044;2023-04-08T07:34:09;6.70;99.90
33761;DHT22;20084;47.912;19.044;2023-04-08T07:36:35;6.70;99.90
33761;DHT22;20084;47.912;19.044;2023-04-08T07:39:00;6.60;99.90
33761;DHT22;20084;47.912;19.044;2023-04-08T07:41:26;6.70;99.90
33761;DHT22;20084;47.912;19.044;2023-04-08T07:43:52;6.70;99.90
33761;DHT22;20084;47.912;19.044;2023-04-08T07:46:18;6.80;99.90
33761;DHT22;20084;47.912;19.044;2023-04-08T07:48:44;6.90;99.90
33761;DHT22;20084;47.912;19.044;2023-04-08T07:51:10;6.90;99.90
33761;DHT22;20084;47.912;19.044;2023-04-08T07:53:36;6.80;99.90
33761;DHT22;20084;47.912;19.044;2023-04-08T07:56:02;6.70;99.90
33761;DHT22;20084;47.912;19.044;2023-04-08T07:58:28;6.70;99.90
33761;DHT22;20084;47.912;19.044;2023-04-08T08:00:54;6.70;99.90
33761;DHT22;20084;47.912;19.044;2023-04-08T08:03:21;6.80;99.90
33761;DHT22;20084;47.912;19.044;2023-04-08T08:05:47;6.80;99.90
33761;DHT22;20084;47.912;19.044;2023-04-08T08:08:13;6.90;99.90
33761;DHT22;20084;47.912;19.044;2023-04-08T08:10:39;6.90;99.90
33761;DHT22;20084;47.912;19.044;2023-04-08T08:13:05;7.00;99.90
33761;DHT22;20084;47.912;19.044;2023-04-08T08:15:32;7.10;99.90
33761;DHT22;20084;47.912;19.044;2023-04-08T08:17:58;7.10;99.90
33761;DHT22;20084;47.912;19.044;2023-04-08T08:20:24;6.90;99.90
33761;DHT22;20084;47.912;19.044;2023-04-08T08:22:49;6.90;99.90
33761;DHT22;20084;47.912;19.044;2023-04-08T08:25:15;6.80;99.90
33761;DHT22;20084;47.912;19.044;2023-04-08T08:27:42;6.90;99.90
33761;DHT22;20084;47.912;19.044;2023-04-08T08:30:08;6.90;99.90
33761;DHT22;20084;47.912;19.044;2023-04-08T08:32:34;6.90;99.90
33761;DHT22;20084;47.912;19.044;2023-04-08T08:35:00;7.00;99.90
33761;DHT22;20084;47.912;19.044;2023-04-08T08:37:26;7.00;99.90
33761;DHT22;20084;47.912;19.044;2023-04-08T08:39:52;7.00;99.90
33761;DHT22;20084;47.912;19.044;2023-04-08T08:42:22;6.90;99.90
33761;DHT22;20084;47.912;19.044;2023-04-08T08:44:48;6.90;99.90
33761;DHT22;20084;47.912;19.044;2023-04-08T08:47:18;6.80;99.90
33761;DHT22;20084;47.912;19.044;2023-04-08T08:49:44;6.90;99.90
33761;DHT22;20084;47.912;19.044;2023-04-08T08:52:10;6.90;99.90
33761;DHT22;20084;47.912;19.044;2023-04-08T08:54:36;7.00;99.90
33761;DHT22;20084;47.912;19.044;2023-04-08T08:57:02;7.00;99.90
33761;DHT22;20084;47.912;19.044;2023-04-08T08:59:28;7.00;99.90
33761;DHT22;20084;47.912;19.044;2023-04-08T09:01:54;7.00;99.90
33761;DHT22;20084;47.912;19.044;2023-04-08T09:04:20;7.00;99.90
33761;DHT22;20084;47.912;19.044;2023-04-08T09:06:49;7.10;99.90
33761;DHT22;20084;47.912;19.044;2023-04-08T09:09:16;7.10;99.90
33761;DHT22;20084;47.912;19.044;2023-04-08T09:11:44;7.10;99.90
33761;DHT22;20084;47.912;19.044;2023-04-08T09:14:23;7.10;99.90
33761;DHT22;20084;47.912;19.044;2023-04-08T09:16:51;7.10;99.90
33761;DHT22;20084;47.912;19.044;2023-04-08T09:19:17;7.20;99.90
33761;DHT22;20084;47.912;19.044;2023-04-08T09:21:43;7.30;99.90
33761;DHT22;20084;47.912;19.044;2023-04-08T09:24:26;7.40;99.90
33761;DHT22;20084;47.912;19.044;2023-04-08T09:26:53;7.40;99.90
33761;DHT22;20084;47.912;19.044;2023-04-08T09:29:23;7.40;99.90
33761;DHT22;20084;47.912;19.044;2023-04-08T09:31:53;7.40;99.90
33761;DHT22;20084;47.912;19.044;2023-04-08T09:34:19;7.40;99.90
33761;DHT22;20084;47.912;19.044;2023-04-08T09:36:51;7.40;99.90
33761;DHT22;20084;47.912;19.044;2023-04-08T09:39:17;7.30;99.90
33761;DHT22;20084;47.912;19.044;2023-04-08T09:41:43;7.30;99.90
33761;DHT22;20084;47.912;19.044;2023-04-08T09:44:10;7.20;99.90
33761;DHT22;20084;47.912;19.044;2023-04-08T09:49:37;7.40;99.90
33761;DHT22;20084;47.912;19.044;2023-04-08T09:52:10;7.70;99.90
33761;DHT22;20084;47.912;19.044;2023-04-08T09:55:04;7.70;99.90
33761;DHT22;20084;47.912;19.044;2023-04-08T10:00:12;7.70;99.90
33761;DHT22;20084;47.912;19.044;2023-04-08T10:05:29;7.80;99.90
33761;DHT22;20084;47.912;19.044;2023-04-08T10:07:55;7.80;99.90
33761;DHT22;20084;47.912;19.044;2023-04-08T10:10:22;7.80;99.90
33761;DHT22;20084;47.912;19.044;2023-04-08T10:12:49;7.80;99.90
33761;DHT22;20084;47.912;19.044;2023-04-08T10:15:25;7.80;99.90
33761;DHT22;20084;47.912;19.044;2023-04-08T10:17:52;7.80;99.90
33761;DHT22;20084;47.912;19.044;2023-04-08T10:23:09;7.80;99.90
33761;DHT22;20084;47.912;19.044;2023-04-08T10:25:38;7.70;99.90
33761;DHT22;20084;47.912;19.044;2023-04-08T10:30:42;7.60;99.90
33761;DHT22;20084;47.912;19.044;2023-04-08T10:33:16;7.50;99.90
33761;DHT22;20084;47.912;19.044;2023-04-08T10:35:49;7.50;99.90
33761;DHT22;20084;47.912;19.044;2023-04-08T10:38:18;7.50;99.90
33761;DHT22;20084;47.912;19.044;2023-04-08T10:40:44;7.60;99.90
33761;DHT22;20084;47.912;19.044;2023-04-08T10:43:11;7.60;99.90
33761;DHT22;20084;47.912;19.044;2023-04-08T10:45:39;7.50;99.90
33761;DHT22;20084;47.912;19.044;2023-04-08T10:48:14;7.50;99.90
33761;DHT22;20084;47.912;19.044;2023-04-08T10:50:42;7.50;99.90
33761;DHT22;20084;47.912;19.044;2023-04-08T10:53:09;7.60;99.90
33761;DHT22;20084;47.912;19.044;2023-04-08T10:55:35;7.60;99.90
33761;DHT22;20084;47.912;19.044;2023-04-08T10:58:06;7.60;99.90
33761;DHT22;20084;47.912;19.044;2023-04-08T11:00:38;7.60;99.90
33761;DHT22;20084;47.912;19.044;2023-04-08T11:03:07;7.60;99.90
33761;DHT22;20084;47.912;19.044;2023-04-08T11:05:33;7.60;99.90
33761;DHT22;20084;47.912;19.044;2023-04-08T11:08:01;7.60;99.90
33761;DHT22;20084;47.912;19.044;2023-04-08T11:10:27;7.60;99.90
33761;DHT22;20084;47.912;19.044;2023-04-08T11:12:56;7.60;99.90
33761;DHT22;20084;47.912;19.044;2023-04-08T11:15:25;7.70;99.90
33761;DHT22;20084;47.912;19.044;2023-04-08T11:17:53;7.70;99.90
33761;DHT22;20084;47.912;19.044;2023-04-08T11:20:19;7.70;99.90
33761;DHT22;20084;47.912;19.044;2023-04-08T11:22:46;7.70;99.90
33761;DHT22;20084;47.912;19.044;2023-04-08T11:25:12;7.70;99.90
33761;DHT22;20084;47.912;19.044;2023-04-08T11:27:38;7.70;99.90
33761;DHT22;20084;47.912;19.044;2023-04-08T11:30:05;7.70;99.90
33761;DHT22;20084;47.912;19.044;2023-04-08T11:32:32;7.70;99.90
33761;DHT22;20084;47.912;19.044;2023-04-08T11:34:59;7.70;99.90
33761;DHT22;20084;47.912;19.044;2023-04-08T11:37:40;7.70;99.90
33761;DHT22;20084;47.912;19.044;2023-04-08T11:40:18;7.70;99.90
33761;DHT22;20084;47.912;19.044;2023-04-08T11:42:43;7.70;99.90
33761;DHT22;20084;47.912;19.044;2023-04-08T11:45:14;7.80;99.90
33761;DHT22;20084;47.912;19.044;2023-04-08T11:47:41;7.80;99.90
33761;DHT22;20084;47.912;19.044;2023-04-08T11:50:07;7.90;99.90
33761;DHT22;20084;47.912;19.044;2023-04-08T11:52:46;7.90;99.90
33761;DHT22;20084;47.912;19.044;2023-04-08T11:55:28;7.90;99.90
33761;DHT22;20084;47.912;19.044;2023-04-08T11:57:55;8.00;99.90
33761;DHT22;20084;47.912;19.044;2023-04-08T12:00:22;8.00;99.90
33761;DHT22;20084;47.912;19.044;2023-04-08T12:02:48;8.00;99.90
33761;DHT22;20084;47.912;19.044;2023-04-08T12:05:14;8.00;99.90
33761;DHT22;20084;47.912;19.044;2023-04-08T12:07:41;8.00;99.90
33761;DHT22;20084;47.912;19.044;2023-04-08T12:10:07;8.00;99.90
33761;DHT22;20084;47.912;19.044;2023-04-08T12:12:33;8.10;99.90
33761;DHT22;20084;47.912;19.044;2023-04-08T12:14:59;8.00;99.90
33761;DHT22;20084;47.912;19.044;2023-04-08T12:17:25;8.00;99.90
33761;DHT22;20084;47.912;19.044;2023-04-08T12:19:51;8.10;99.90
33761;DHT22;20084;47.912;19.044;2023-04-08T12:22:16;8.10;99.90
33761;DHT22;20084;47.912;19.044;2023-04-08T12:24:42;8.20;99.90
33761;DHT22;20084;47.912;19.044;2023-04-08T12:27:07;8.20;99.90
33761;DHT22;20084;47.912;19.044;2023-04-08T12:29:33;8.10;99.90
33761;DHT22;20084;47.912;19.044;2023-04-08T12:31:59;8.00;99.90
33761;DHT22;20084;47.912;19.044;2023-04-08T12:34:25;8.00;99.90
33761;DHT22;20084;47.912;19.044;2023-04-08T12:36:50;8.10;99.90
33761;DHT22;20084;47.912;19.044;2023-04-08T12:39:16;8.10;99.90
33761;DHT22;20084;47.912;19.044;2023-04-08T12:41:41;8.10;99.90
33761;DHT22;20084;47.912;19.044;2023-04-08T12:44:07;8.10;99.90
33761;DHT22;20084;47.912;19.044;2023-04-08T12:46:33;8.20;99.90
33761;DHT22;20084;47.912;19.044;2023-04-08T12:48:58;8.20;99.90
33761;DHT22;20084;47.912;19.044;2023-04-08T12:51:25;8.20;99.90
33761;DHT22;20084;47.912;19.044;2023-04-08T12:53:51;8.20;99.90
33761;DHT22;20084;47.912;19.044;2023-04-08T12:56:16;8.20;99.90
33761;DHT22;20084;47.912;19.044;2023-04-08T12:58:42;8.30;99.90
33761;DHT22;20084;47.912;19.044;2023-04-08T13:01:08;8.30;99.90
33761;DHT22;20084;47.912;19.044;2023-04-08T13:03:33;8.40;99.90
33761;DHT22;20084;47.912;19.044;2023-04-08T13:06:00;8.50;99.90
33761;DHT22;20084;47.912;19.044;2023-04-08T13:08:26;8.40;99.90
33761;DHT22;20084;47.912;19.044;2023-04-08T13:10:52;8.50;99.90
33761;DHT22;20084;47.912;19.044;2023-04-08T13:13:19;8.50;99.90
33761;DHT22;20084;47.912;19.044;2023-04-08T13:15:44;8.70;99.90
33761;DHT22;20084;47.912;19.044;2023-04-08T13:18:10;8.70;99.90
33761;DHT22;20084;47.912;19.044;2023-04-08T13:20:36;8.70;99.90
33761;DHT22;20084;47.912;19.044;2023-04-08T13:23:02;8.70;99.90
33761;DHT22;20084;47.912;19.044;2023-04-08T13:25:27;8.70;99.90
33761;DHT22;20084;47.912;19.044;2023-04-08T13:27:53;8.80;99.90
33761;DHT22;20084;47.912;19.044;2023-04-08T13:30:18;8.80;99.90
33761;DHT22;20084;47.912;19.044;2023-04-08T13:32:44;8.90;99.90
33761;DHT22;20084;47.912;19.044;2023-04-08T13:35:10;8.90;99.90
33761;DHT22;20084;47.912;19.044;2023-04-08T13:37:36;8.90;99.90
33761;DHT22;20084;47.912;19.044;2023-04-08T13:40:02;8.90;99.90
33761;DHT22;20084;47.912;19.044;2023-04-08T13:42:28;8.80;99.90
33761;DHT22;20084;47.912;19.044;2023-04-08T13:44:57;8.80;99.90
33761;DHT22;20084;47.912;19.044;2023-04-08T13:47:23;8.70;99.90
33761;DHT22;20084;47.912;19.044;2023-04-08T13:49:49;8.70;99.90
33761;DHT22;20084;47.912;19.044;2023-04-08T13:52:15;8.60;99.90
33761;DHT22;20084;47.912;19.044;2023-04-08T13:54:40;8.50;99.90
33761;DHT22;20084;47.912;19.044;2023-04-08T13:57:06;8.50;99.90
33761;DHT22;20084;47.912;19.044;2023-04-08T13:59:32;8.50;99.90
33761;DHT22;20084;47.912;19.044;2023-04-08T14:01:57;8.40;99.90
33761;DHT22;20084;47.912;19.044;2023-04-08T14:04:23;8.50;99.90
33761;DHT22;20084;47.912;19.044;2023-04-08T14:06:49;8.50;99.90
33761;DHT22;20084;47.912;19.044;2023-04-08T14:09:19;8.60;99.90
33761;DHT22;20084;47.912;19.044;2023-04-08T14:11:45;8.50;99.90
33761;DHT22;20084;47.912;19.044;2023-04-08T14:14:11;8.50;99.90
33761;DHT22;20084;47.912;19.044;2023-04-08T14:16:37;8.40;99.90
33761;DHT22;20084;47.912;19.044;2023-04-08T14:19:03;8.50;99.90
33761;DHT22;20084;47.912;19.044;2023-04-08T14:21:29;8.50;99.90
33761;DHT22;20084;47.912;19.044;2023-04-08T14:23:56;8.50;99.90
33761;DHT22;20084;47.912;19.044;2023-04-08T14:26:22;8.50;99.90
33761;DHT22;20084;47.912;19.044;2023-04-08T14:28:48;8.50;99.90
33761;DHT22;20084;47.912;19.044;2023-04-08T14:31:13;8.50;99.90
33761;DHT22;20084;47.912;19.044;2023-04-08T14:33:40;8.50;99.90
33761;DHT22;20084;47.912;19.044;2023-04-08T14:36:06;8.50;99.90
33761;DHT22;20084;47.912;19.044;2023-04-08T14:38:32;8.50;99.90
33761;DHT22;20084;47.912;19.044;2023-04-08T14:40:58;8.50;99.90
33761;DHT22;20084;47.912;19.044;2023-04-08T14:43:24;8.50;99.90
33761;DHT22;20084;47.912;19.044;2023-04-08T14:45:49;8.50;99.90
33761;DHT22;20084;47.912;19.044;2023-04-08T14:48:18;8.30;99.90
33761;DHT22;20084;47.912;19.044;2023-04-08T14:50:44;8.20;99.90
33761;DHT22;20084;47.912;19.044;2023-04-08T14:53:10;8.10;99.90
33761;DHT22;20084;47.912;19.044;2023-04-08T14:55:36;8.10;99.90
33761;DHT22;20084;47.912;19.044;2023-04-08T14:58:03;8.10;99.90
33761;DHT22;20084;47.912;19.044;2023-04-08T15:00:29;8.10;99.90
33761;DHT22;20084;47.912;19.044;2023-04-08T15:02:54;8.00;99.90
33761;DHT22;20084;47.912;19.044;2023-04-08T15:05:20;8.00;99.90
33761;DHT22;20084;47.912;19.044;2023-04-08T15:07:46;7.90;99.90
33761;DHT22;20084;47.912;19.044;2023-04-08T15:10:12;7.80;99.90
33761;DHT22;20084;47.912;19.044;2023-04-08T15:12:38;7.70;99.90
33761;DHT22;20084;47.912;19.044;2023-04-08T15:15:04;7.70;99.90
33761;DHT22;20084;47.912;19.044;2023-04-08T15:17:30;7.70;99.90
33761;DHT22;20084;47.912;19.044;2023-04-08T15:19:56;7.60;99.90
33761;DHT22;20084;47.912;19.044;2023-04-08T15:22:23;7.60;99.90
33761;DHT22;20084;47.912;19.044;2023-04-08T15:24:48;7.70;99.90
33761;DHT22;20084;47.912;19.044;2023-04-08T15:27:14;7.70;99.90
33761;DHT22;20084;47.912;19.044;2023-04-08T15:29:40;7.70;99.90
33761;DHT22;20084;47.912;19.044;2023-04-08T15:32:06;7.70;99.90
33761;DHT22;20084;47.912;19.044;2023-04-08T15:34:32;7.60;99.90
33761;DHT22;20084;47.912;19.044;2023-04-08T15:36:58;7.60;99.90
33761;DHT22;20084;47.912;19.044;2023-04-08T15:39:24;7.50;99.90
33761;DHT22;20084;47.912;19.044;2023-04-08T15:41:49;7.50;99.90
33761;DHT22;20084;47.912;19.044;2023-04-08T15:44:15;7.50;99.90
33761;DHT22;20084;47.912;19.044;2023-04-08T15:46:42;7.50;99.90
33761;DHT22;20084;47.912;19.044;2023-04-08T15:49:07;7.50;99.90